Time;durP1;ratioP1;P1;durP2;ratioP2;P2;SDS_P1;SDS_P2;PMS_P1;PMS_P2;Temp;Humidity;BMP_temperature;BMP_pressure;BME280_temperature;BME280_humidity;BME280_pressure;Samples;Min_cycle;Max_cycle;Signal;HPM_P1;HPM_P2
2022/07/24 00:01:29;;;;;;;;;;;;;;;;;;5076643;28;19916;-83
2022/07/24 00:03:55;;;;;;;;;;;;;;;;;;5076435;28;20015;-89
2022/07/24 00:06:21;;;;;;;;;;;;;;;;;;5075833;28;20257;-88
2022/07/24 00:08:46;;;;;;;;;;;;;;;;;;5076609;28;19946;-82
2022/07/24 00:11:12;;;;;;;;;;;;;;;;;;5058413;28;20350;-87
2022/07/24 00:13:37;;;;;;;;;;;;;;;;;;5076563;28;19917;-86
2022/07/24 00:16:03;;;;;;;;;;;;;;;;;;5076362;28;19935;-83
2022/07/24 00:18:29;;;;;;;;;;;;;;;;;;5076358;28;19956;-86
2022/07/24 00:20:54;;;;;;;;;;;;;;;;;;5076274;28;19919;-83
2022/07/24 00:23:21;;;;;;;;;;;;;;;;;;5076269;28;19953;-84
2022/07/24 00:25:46;;;;;;;;;;;;;;;;;;5076237;28;19917;-83
2022/07/24 00:28:12;;;;;;;;;;;;;;;;;;5076118;28;19926;-84
2022/07/24 00:30:38;;;;;;;;;;;;;;;;;;5058115;28;19916;-83
2022/07/24 00:33:03;;;;;;;;;;;;;;;;;;5075978;28;19966;-86
2022/07/24 00:35:29;;;;;;;;;;;;;;;;;;5075957;28;19916;-83
2022/07/24 00:37:54;;;;;;;;;;;;;;;;;;5079599;28;19986;-83
2022/07/24 00:40:20;;;;;;;;;;;;;;;;;;5086493;28;19931;-83
2022/07/24 00:42:45;;;;;;;;;;;;;;;;;;5090882;28;19917;-88
2022/07/24 00:45:11;;;;;;;;;;;;;;;;;;5071131;28;19924;-84
2022/07/24 00:47:36;;;;;;;;;;;;;;;;;;5078866;28;19916;-88
2022/07/24 00:50:04;;;;;;;;;;;;;;;;;;5082753;28;19921;-88
2022/07/24 00:52:30;;;;;;;;;;;;;;;;;;5059428;28;19919;-84
2022/07/24 00:54:55;;;;;;;;;;;;;;;;;;5076235;28;20003;-90
2022/07/24 00:57:21;;;;;;;;;;;;;;;;;;5075867;28;20340;-86
2022/07/24 00:59:46;;;;;;;;;;;;;;;;;;5075691;28;19916;-90
2022/07/24 01:02:12;;;;;;;;;;;;;;;;;;5075448;28;19927;-89
2022/07/24 01:04:38;;;;;;;;;;;;;;;;;;5075572;28;19963;-91
2022/07/24 01:07:03;;;;;;;;;;;;;;;;;;5075446;28;19923;-87
2022/07/24 01:09:29;;;;;;;;;;;;;;;;;;5075500;28;20368;-85
2022/07/24 01:11:55;;;;;;;;;;;;;;;;;;5057384;28;20363;-91
2022/07/24 01:14:20;;;;;;;;;;;;;;;;;;5075279;28;19939;-85
2022/07/24 01:16:46;;;;;;;;;;;;;;;;;;5075249;28;19923;-82
2022/07/24 01:19:11;;;;;;;;;;;;;;;;;;5075162;28;19962;-83
2022/07/24 01:21:36;;;;;;;;;;;;;;;;;;5075803;28;19917;-82
2022/07/24 01:24:02;;;;;;;;;;;;;;;;;;5075321;28;19921;-82
2022/07/24 01:26:27;;;;;;;;;;;;;;;;;;5074995;28;19916;-83
2022/07/24 01:28:53;;;;;;;;;;;;;;;;;;5057021;28;19917;-82
2022/07/24 01:31:18;;;;;;;;;;;;;;;;;;5056723;28;20003;-83
2022/07/24 01:33:44;;;;;;;;;;;;;;;;;;5056980;28;19921;-84
2022/07/24 01:36:09;;;;;;;;;;;;;;;;;;5075096;28;19916;-83
2022/07/24 01:38:35;;;;;;;;;;;;;;;;;;5074879;28;20363;-86
2022/07/24 01:41:00;;;;;;;;;;;;;;;;;;5056655;28;20383;-84
2022/07/24 01:43:26;;;;;;;;;;;;;;;;;;5074561;28;20011;-86
2022/07/24 01:45:51;;;;;;;;;;;;;;;;;;5074543;28;19961;-83
2022/07/24 01:48:17;;;;;;;;;;;;;;;;;;5074650;28;19958;-82
2022/07/24 01:50:42;;;;;;;;;;;;;;;;;;5056560;28;20018;-83
2022/07/24 01:53:07;;;;;;;;;;;;;;;;;;5074471;28;19916;-90
2022/07/24 01:55:33;;;;;;;;;;;;;;;;;;5074531;28;19923;-88
2022/07/24 01:57:58;;;;;;;;;;;;;;;;;;5074701;28;19916;-83
2022/07/24 02:00:24;;;;;;;;;;;;;;;;;;5074517;28;20017;-84
2022/07/24 02:02:49;;;;;;;;;;;;;;;;;;5074227;28;20368;-84
2022/07/24 02:05:15;;;;;;;;;;;;;;;;;;5074496;28;19920;-82
2022/07/24 02:07:41;;;;;;;;;;;;;;;;;;5074415;28;19947;-88
2022/07/24 02:10:07;;;;;;;;;;;;;;;;;;5074380;28;19916;-83
2022/07/24 02:12:33;;;;;;;;;;;;;;;;;;5074403;28;19924;-86
2022/07/24 02:14:58;;;;;;;;;;;;;;;;;;5074289;28;20012;-91
2022/07/24 02:17:24;;;;;;;;;;;;;;;;;;5074151;28;20376;-83
2022/07/24 02:19:49;;;;;;;;;;;;;;;;;;5074225;28;19913;-89
2022/07/24 02:22:15;;;;;;;;;;;;;;;;;;5074201;28;19951;-83
2022/07/24 02:24:40;;;;;;;;;;;;;;;;;;5056098;28;19917;-83
2022/07/24 02:27:06;;;;;;;;;;;;;;;;;;5074185;28;19923;-88
2022/07/24 02:29:32;;;;;;;;;;;;;;;;;;5073774;28;19925;-82
2022/07/24 02:31:57;;;;;;;;;;;;;;;;;;5055886;28;19920;-83
2022/07/24 02:34:23;;;;;;;;;;;;;;;;;;5074139;28;19966;-83
2022/07/24 02:36:48;;;;;;;;;;;;;;;;;;5073974;28;19997;-87
2022/07/24 02:39:13;;;;;;;;;;;;;;;;;;5055929;28;19916;-84
2022/07/24 02:41:39;;;;;;;;;;;;;;;;;;5074139;28;19962;-82
2022/07/24 02:44:04;;;;;;;;;;;;;;;;;;5073934;28;19916;-89
2022/07/24 02:46:30;;;;;;;;;;;;;;;;;;5056016;28;19967;-83
2022/07/24 02:48:55;;;;;;;;;;;;;;;;;;5074602;28;19986;-83
2022/07/24 02:51:21;;;;;;;;;;;;;;;;;;5074253;28;19924;-90
2022/07/24 02:53:46;;;;;;;;;;;;;;;;;;5073942;28;19952;-89
2022/07/24 02:56:11;;;;;;;;;;;;;;;;;;5073943;28;19916;-83
2022/07/24 02:58:37;;;;;;;;;;;;;;;;;;5073879;28;19916;-91
2022/07/24 03:01:02;;;;;;;;;;;;;;;;;;5055766;28;20018;-82
2022/07/24 03:03:28;;;;;;;;;;;;;;;;;;5073671;28;19916;-82
2022/07/24 03:05:53;;;;;;;;;;;;;;;;;;5073679;28;19924;-84
2022/07/24 03:08:19;;;;;;;;;;;;;;;;;;5073740;28;19956;-86
2022/07/24 03:10:44;;;;;;;;;;;;;;;;;;5073679;28;20390;-83
2022/07/24 03:13:10;;;;;;;;;;;;;;;;;;5073715;28;20291;-87
2022/07/24 03:15:35;;;;;;;;;;;;;;;;;;5074187;28;20368;-84
2022/07/24 03:18:01;;;;;;;;;;;;;;;;;;5074087;28;20333;-84
2022/07/24 03:20:28;;;;;;;;;;;;;;;;;;5073963;28;19928;-87
2022/07/24 03:22:54;;;;;;;;;;;;;;;;;;5073894;28;19921;-86
2022/07/24 03:25:19;;;;;;;;;;;;;;;;;;5073862;28;19962;-90
2022/07/24 03:27:47;;;;;;;;;;;;;;;;;;5073900;28;19963;-84
2022/07/24 03:30:13;;;;;;;;;;;;;;;;;;5055910;28;19920;-88
2022/07/24 03:32:38;;;;;;;;;;;;;;;;;;5073636;28;20403;-82
2022/07/24 03:35:04;;;;;;;;;;;;;;;;;;5073891;28;19917;-89
2022/07/24 03:37:30;;;;;;;;;;;;;;;;;;5073740;28;19923;-87
2022/07/24 03:39:55;;;;;;;;;;;;;;;;;;5055797;28;19963;-85
2022/07/24 03:42:21;;;;;;;;;;;;;;;;;;5075281;28;20011;-92
2022/07/24 03:44:46;;;;;;;;;;;;;;;;;;5077510;28;19923;-85
2022/07/24 03:47:12;;;;;;;;;;;;;;;;;;5077164;28;19923;-89
2022/07/24 03:49:37;;;;;;;;;;;;;;;;;;5077094;28;19916;-86
2022/07/24 03:52:03;;;;;;;;;;;;;;;;;;5076972;28;19947;-85
2022/07/24 03:54:29;;;;;;;;;;;;;;;;;;5076993;28;19987;-91
2022/07/24 03:56:54;;;;;;;;;;;;;;;;;;5076904;28;19960;-91
2022/07/24 03:59:19;;;;;;;;;;;;;;;;;;5076968;28;19917;-86
2022/07/24 04:01:45;;;;;;;;;;;;;;;;;;5077066;28;20253;-89
2022/07/24 04:04:10;;;;;;;;;;;;;;;;;;5076872;28;19923;-93
2022/07/24 04:06:36;;;;;;;;;;;;;;;;;;5077076;28;19923;-91
2022/07/24 04:09:03;;;;;;;;;;;;;;;;;;5076564;28;19916;-90
2022/07/24 04:11:28;;;;;;;;;;;;;;;;;;5076904;28;20291;-86
2022/07/24 04:13:54;;;;;;;;;;;;;;;;;;5076477;28;19969;-90
2022/07/24 04:16:19;;;;;;;;;;;;;;;;;;5076481;28;19916;-89
2022/07/24 04:18:45;;;;;;;;;;;;;;;;;;5059076;28;19955;-94
2022/07/24 04:21:10;;;;;;;;;;;;;;;;;;5058315;28;19997;-85
2022/07/24 04:23:36;;;;;;;;;;;;;;;;;;5076236;28;19970;-87
2022/07/24 04:26:01;;;;;;;;;;;;;;;;;;5076309;28;19963;-88
2022/07/24 04:28:27;;;;;;;;;;;;;;;;;;5076315;28;19917;-93
2022/07/24 04:30:52;;;;;;;;;;;;;;;;;;5076549;28;20003;-84
2022/07/24 04:33:18;;;;;;;;;;;;;;;;;;5075961;28;19920;-85
2022/07/24 04:35:43;;;;;;;;;;;;;;;;;;5076238;28;19923;-85
2022/07/24 04:38:09;;;;;;;;;;;;;;;;;;5076148;28;19924;-88
2022/07/24 04:40:35;;;;;;;;;;;;;;;;;;5076246;28;19916;-92
2022/07/24 04:43:00;;;;;;;;;;;;;;;;;;5076054;28;19939;-91
2022/07/24 04:45:26;;;;;;;;;;;;;;;;;;5076268;28;19969;-85
2022/07/24 04:47:51;;;;;;;;;;;;;;;;;;5075980;28;19969;-90
2022/07/24 04:50:16;;;;;;;;;;;;;;;;;;5076169;28;20433;-93
2022/07/24 04:52:42;;;;;;;;;;;;;;;;;;5075371;28;20429;-93
2022/07/24 04:55:08;;;;;;;;;;;;;;;;;;5075921;28;19990;-93
2022/07/24 04:57:33;;;;;;;;;;;;;;;;;;5075679;28;19943;-82
2022/07/24 04:59:59;;;;;;;;;;;;;;;;;;5079913;28;19900;-83
2022/07/24 05:02:24;;;;;;;;;;;;;;;;;;5089733;28;19916;-84
2022/07/24 05:04:50;;;;;;;;;;;;;;;;;;5089812;28;19924;-83
2022/07/24 05:07:15;;;;;;;;;;;;;;;;;;5078448;28;20283;-84
2022/07/24 05:09:40;;;;;;;;;;;;;;;;;;5065178;28;19948;-91
2022/07/24 05:12:06;;;;;;;;;;;;;;;;;;5061350;28;20383;-93
2022/07/24 05:14:32;;;;;;;;;;;;;;;;;;5055845;28;19923;-89
2022/07/24 05:16:57;;;;;;;;;;;;;;;;;;5055661;28;19916;-89
2022/07/24 05:19:23;;;;;;;;;;;;;;;;;;5055328;28;20012;-84
2022/07/24 05:21:48;;;;;;;;;;;;;;;;;;5055156;28;19944;-89
2022/07/24 05:24:13;;;;;;;;;;;;;;;;;;5055069;28;19917;-88
2022/07/24 05:26:39;;;;;;;;;;;;;;;;;;5037366;28;20273;-88
2022/07/24 05:29:07;;;;;;;;;;;;;;;;;;5055023;28;19999;-82
2022/07/24 05:31:33;;;;;;;;;;;;;;;;;;5054715;28;19920;-88
2022/07/24 05:33:58;;;;;;;;;;;;;;;;;;5055249;28;20292;-83
2022/07/24 05:36:24;;;;;;;;;;;;;;;;;;5055115;28;19940;-85
2022/07/24 05:38:50;;;;;;;;;;;;;;;;;;5054855;28;19917;-84
2022/07/24 05:41:15;;;;;;;;;;;;;;;;;;5054939;28;19921;-94
2022/07/24 05:43:41;;;;;;;;;;;;;;;;;;5054817;28;19924;-86
2022/07/24 05:46:06;;;;;;;;;;;;;;;;;;5054752;28;19916;-85
2022/07/24 05:48:32;;;;;;;;;;;;;;;;;;5054746;28;19919;-94
2022/07/24 05:50:58;;;;;;;;;;;;;;;;;;5054636;28;19921;-88
2022/07/24 05:53:23;;;;;;;;;;;;;;;;;;5054645;28;19923;-92
2022/07/24 05:55:49;;;;;;;;;;;;;;;;;;5054593;28;20007;-90
2022/07/24 05:58:15;;;;;;;;;;;;;;;;;;5054435;28;19923;-92
2022/07/24 06:00:40;;;;;;;;;;;;;;;;;;5036716;28;20322;-91
2022/07/24 06:03:06;;;;;;;;;;;;;;;;;;5054337;28;19917;-90
2022/07/24 06:05:31;;;;;;;;;;;;;;;;;;5053931;28;19921;-87
2022/07/24 06:07:57;;;;;;;;;;;;;;;;;;5054443;28;19917;-92
2022/07/24 06:10:22;;;;;;;;;;;;;;;;;;5054472;28;19921;-89
2022/07/24 06:12:48;;;;;;;;;;;;;;;;;;5054658;28;19921;-83
2022/07/24 06:15:13;;;;;;;;;;;;;;;;;;5054228;28;19962;-91
2022/07/24 06:17:39;;;;;;;;;;;;;;;;;;5054152;28;19916;-87
2022/07/24 06:20:06;;;;;;;;;;;;;;;;;;5054254;28;19917;-92
2022/07/24 06:22:31;;;;;;;;;;;;;;;;;;5053998;28;19920;-85
2022/07/24 06:24:57;;;;;;;;;;;;;;;;;;5054062;28;20022;-84
2022/07/24 06:27:22;;;;;;;;;;;;;;;;;;5054160;28;19929;-93
2022/07/24 06:29:47;;;;;;;;;;;;;;;;;;5054021;28;20369;-87
2022/07/24 06:32:13;;;;;;;;;;;;;;;;;;5053914;28;19925;-86
2022/07/24 06:34:40;;;;;;;;;;;;;;;;;;5053107;28;20112;-93
2022/07/24 06:37:06;;;;;;;;;;;;;;;;;;5053877;28;19928;-88
2022/07/24 06:39:32;;;;;;;;;;;;;;;;;;5053791;28;20372;-93
2022/07/24 06:41:57;;;;;;;;;;;;;;;;;;5053979;28;19924;-87
2022/07/24 06:44:23;;;;;;;;;;;;;;;;;;5054044;28;19921;-91
2022/07/24 06:46:48;;;;;;;;;;;;;;;;;;5054139;28;20383;-91
2022/07/24 06:49:14;;;;;;;;;;;;;;;;;;5053773;28;19916;-92
2022/07/24 06:51:39;;;;;;;;;;;;;;;;;;5054140;28;20284;-92
2022/07/24 06:54:05;;;;;;;;;;;;;;;;;;5053830;28;20427;-91
2022/07/24 06:56:30;;;;;;;;;;;;;;;;;;5036063;28;19921;-89
2022/07/24 06:58:55;;;;;;;;;;;;;;;;;;5053624;28;19924;-93
2022/07/24 07:01:25;;;;;;;;;;;;;;;;;;5053998;28;19917;-85
2022/07/24 07:03:54;;;;;;;;;;;;;;;;;;5053521;28;19964;-85
2022/07/24 07:06:19;;;;;;;;;;;;;;;;;;5053692;28;19917;-86
2022/07/24 07:08:45;;;;;;;;;;;;;;;;;;5053558;28;19976;-83
2022/07/24 07:11:10;;;;;;;;;;;;;;;;;;5053654;28;19916;-84
2022/07/24 07:13:35;;;;;;;;;;;;;;;;;;5053712;28;20023;-82
2022/07/24 07:16:01;;;;;;;;;;;;;;;;;;5054515;28;19936;-92
2022/07/24 07:18:26;;;;;;;;;;;;;;;;;;5057310;28;19940;-90
2022/07/24 07:20:53;;;;;;;;;;;;;;;;;;5057358;28;19995;-86
2022/07/24 07:23:20;;;;;;;;;;;;;;;;;;5057283;28;19986;-92
2022/07/24 07:25:45;;;;;;;;;;;;;;;;;;5057292;28;19920;-84
2022/07/24 07:28:10;;;;;;;;;;;;;;;;;;5057322;28;19913;-84
2022/07/24 07:30:36;;;;;;;;;;;;;;;;;;5057225;28;20387;-83
2022/07/24 07:33:01;;;;;;;;;;;;;;;;;;5039013;28;19921;-83
2022/07/24 07:35:27;;;;;;;;;;;;;;;;;;5057282;28;19916;-83
2022/07/24 07:37:52;;;;;;;;;;;;;;;;;;5057003;28;19935;-83
2022/07/24 07:40:18;;;;;;;;;;;;;;;;;;5057245;28;20430;-85
2022/07/24 07:42:43;;;;;;;;;;;;;;;;;;5057032;28;19916;-86
2022/07/24 07:45:09;;;;;;;;;;;;;;;;;;5056988;28;20004;-86
2022/07/24 07:47:37;;;;;;;;;;;;;;;;;;5057034;28;20011;-83
2022/07/24 07:50:03;;;;;;;;;;;;;;;;;;5056832;28;19920;-84
2022/07/24 07:52:29;;;;;;;;;;;;;;;;;;5057002;28;19917;-89
2022/07/24 07:54:54;;;;;;;;;;;;;;;;;;5056863;28;19970;-85
2022/07/24 07:57:20;;;;;;;;;;;;;;;;;;5056911;28;19955;-84
2022/07/24 07:59:45;;;;;;;;;;;;;;;;;;5056875;28;19916;-84
2022/07/24 08:02:11;;;;;;;;;;;;;;;;;;5038797;28;19924;-83
2022/07/24 08:04:36;;;;;;;;;;;;;;;;;;5038688;28;19982;-90
2022/07/24 08:07:01;;;;;;;;;;;;;;;;;;5056878;28;20414;-89
2022/07/24 08:09:27;;;;;;;;;;;;;;;;;;5056489;28;19923;-83
2022/07/24 08:11:52;;;;;;;;;;;;;;;;;;5056456;28;19921;-84
2022/07/24 08:14:18;;;;;;;;;;;;;;;;;;5038499;28;20372;-82
2022/07/24 08:16:44;;;;;;;;;;;;;;;;;;5056312;28;19970;-84
2022/07/24 08:19:10;;;;;;;;;;;;;;;;;;5056260;28;19924;-86
2022/07/24 08:21:35;;;;;;;;;;;;;;;;;;5056263;28;19917;-84
2022/07/24 08:24:01;;;;;;;;;;;;;;;;;;5056105;28;20019;-83
2022/07/24 08:26:30;;;;;;;;;;;;;;;;;;5056131;28;20008;-92
2022/07/24 08:28:56;;;;;;;;;;;;;;;;;;5055374;28;19924;-87
2022/07/24 08:31:21;;;;;;;;;;;;;;;;;;5037820;28;19917;-83
2022/07/24 08:33:47;;;;;;;;;;;;;;;;;;5038176;28;19978;-83
2022/07/24 08:36:12;;;;;;;;;;;;;;;;;;5056006;28;19971;-83
2022/07/24 08:38:38;;;;;;;;;;;;;;;;;;5055842;28;19916;-83
2022/07/24 08:41:03;;;;;;;;;;;;;;;;;;5055932;28;20385;-84
2022/07/24 08:43:28;;;;;;;;;;;;;;;;;;5055758;28;19916;-85
2022/07/24 08:45:55;;;;;;;;;;;;;;;;;;5056069;28;19917;-85
2022/07/24 08:48:20;;;;;;;;;;;;;;;;;;5055723;28;19913;-85
2022/07/24 08:50:46;;;;;;;;;;;;;;;;;;5055560;28;20016;-83
2022/07/24 08:53:12;;;;;;;;;;;;;;;;;;5055647;28;19939;-83
2022/07/24 08:55:37;;;;;;;;;;;;;;;;;;5055698;28;19920;-84
2022/07/24 08:58:03;;;;;;;;;;;;;;;;;;5037620;28;19920;-83
2022/07/24 09:00:29;;;;;;;;;;;;;;;;;;5055542;28;20395;-83
2022/07/24 09:02:55;;;;;;;;;;;;;;;;;;5055367;28;19921;-83
2022/07/24 09:05:20;;;;;;;;;;;;;;;;;;5055357;28;20368;-82
2022/07/24 09:07:46;;;;;;;;;;;;;;;;;;5055403;28;19913;-83
2022/07/24 09:10:13;;;;;;;;;;;;;;;;;;5055485;28;19953;-81
2022/07/24 09:12:41;;;;;;;;;;;;;;;;;;5041060;28;20343;-92
2022/07/24 09:15:13;;;;;;;;;;;;;;;;;;5057856;28;19923;-86
2022/07/24 09:17:52;;;;;;;;;;;;;;;;;;5073676;28;19900;-81
2022/07/24 09:20:17;;;;;;;;;;;;;;;;;;5079065;28;19913;-82
2022/07/24 09:22:43;;;;;;;;;;;;;;;;;;5082487;28;19920;-82
2022/07/24 09:25:10;;;;;;;;;;;;;;;;;;5079705;28;19923;-83
2022/07/24 09:27:37;;;;;;;;;;;;;;;;;;5057197;28;19960;-83
2022/07/24 09:30:03;;;;;;;;;;;;;;;;;;5074989;28;20010;-84
2022/07/24 09:32:29;;;;;;;;;;;;;;;;;;5074625;28;19924;-86
2022/07/24 09:34:54;;;;;;;;;;;;;;;;;;5074875;28;20335;-83
2022/07/24 09:37:20;;;;;;;;;;;;;;;;;;5075390;28;19924;-83
2022/07/24 09:39:46;;;;;;;;;;;;;;;;;;5073792;28;19916;-84
2022/07/24 09:42:12;;;;;;;;;;;;;;;;;;5074733;28;19935;-83
2022/07/24 09:44:38;;;;;;;;;;;;;;;;;;5074569;28;19916;-83
2022/07/24 09:47:10;;;;;;;;;;;;;;;;;;5074732;28;19926;-84
2022/07/24 09:49:36;;;;;;;;;;;;;;;;;;5074464;28;19939;-83
2022/07/24 09:52:18;;;;;;;;;;;;;;;;;;5074634;28;19923;-83
2022/07/24 09:54:50;;;;;;;;;;;;;;;;;;5074469;28;20396;-83
2022/07/24 09:57:18;;;;;;;;;;;;;;;;;;5074451;28;19917;-83
2022/07/24 10:00:04;;;;;;;;;;;;;;;;;;5056414;28;19948;-83
2022/07/24 10:02:31;;;;;;;;;;;;;;;;;;5074363;28;20334;-83
2022/07/24 10:04:57;;;;;;;;;;;;;;;;;;5074230;28;19963;-83
2022/07/24 10:07:23;;;;;;;;;;;;;;;;;;5074344;28;19916;-83
2022/07/24 10:09:50;;;;;;;;;;;;;;;;;;5074259;28;20334;-84
2022/07/24 10:12:17;;;;;;;;;;;;;;;;;;5074309;28;20450;-83
2022/07/24 10:14:43;;;;;;;;;;;;;;;;;;5074269;28;19960;-83
2022/07/24 10:17:10;;;;;;;;;;;;;;;;;;5074139;28;19916;-83
2022/07/24 10:19:55;;;;;;;;;;;;;;;;;;5074180;28;20007;-92
2022/07/24 10:22:22;;;;;;;;;;;;;;;;;;5073568;28;19916;-84
2022/07/24 10:24:47;;;;;;;;;;;;;;;;;;5073935;28;19924;-85
2022/07/24 10:27:25;;;;;;;;;;;;;;;;;;5074095;28;19921;-89
2022/07/24 10:29:55;;;;;;;;;;;;;;;;;;5074079;28;19916;-87
2022/07/24 10:32:22;;;;;;;;;;;;;;;;;;5073747;28;20007;-85
2022/07/24 10:34:55;;;;;;;;;;;;;;;;;;5074082;28;19917;-83
2022/07/24 10:37:27;;;;;;;;;;;;;;;;;;5056064;28;19912;-84
2022/07/24 10:40:04;;;;;;;;;;;;;;;;;;5074037;28;19916;-83
2022/07/24 10:42:30;;;;;;;;;;;;;;;;;;5073938;28;19920;-84
2022/07/24 10:45:31;;;;;;;;;;;;;;;;;;5073972;28;19920;-83
2022/07/24 10:47:57;;;;;;;;;;;;;;;;;;4973195;28;19918;-83
2022/07/24 10:50:22;;;;;;;;;;;;;;;;;;4973365;28;19918;-83
2022/07/24 10:52:48;;;;;;;;;;;;;;;;;;4960906;28;19918;-85
2022/07/24 10:55:19;;;;;;;;;;;;;;;;;;4977145;28;20325;-83
2022/07/24 10:57:46;;;;;;;;;;;;;;;;;;4977640;28;20012;-83
2022/07/24 11:00:40;;;;;;;;;;;;;;;;;;4977125;28;19918;-83
2022/07/24 11:03:20;;;;;;;;;;;;;;;;;;4964781;28;19961;-84
2022/07/24 11:06:05;;;;;;;;;;;;;;;;;;4977164;28;20346;-83
2022/07/24 11:08:31;;;;;;;;;;;;;;;;;;4976981;28;19958;-83
2022/07/24 11:11:04;;;;;;;;;;;;;;;;;;4976751;28;19918;-83
2022/07/24 11:13:33;;;;;;;;;;;;;;;;;;4976922;28;19918;-84
2022/07/24 11:16:10;;;;;;;;;;;;;;;;;;4977010;28;20061;-83
2022/07/24 11:18:39;;;;;;;;;;;;;;;;;;4960591;28;19918;-89
2022/07/24 11:21:04;;;;;;;;;;;;;;;;;;4992916;28;19916;-84
2022/07/24 11:23:30;;;;;;;;;;;;;;;;;;5077333;28;20011;-83
2022/07/24 11:26:14;;;;;;;;;;;;;;;;;;5077289;28;20348;-83
2022/07/24 11:28:40;;;;;;;;;;;;;;;;;;5077401;28;19916;-84
2022/07/24 11:31:05;;;;;;;;;;;;;;;;;;5077081;28;19923;-85
2022/07/24 11:33:31;;;;;;;;;;;;;;;;;;5076987;28;19927;-83
2022/07/24 11:35:57;;;;;;;;;;;;;;;;;;5077191;28;19916;-86
2022/07/24 11:38:28;;;;;;;;;;;;;;;;;;5077260;28;20335;-83
2022/07/24 11:41:04;;;;;;;;;;;;;;;;;;5077261;28;19976;-84
2022/07/24 11:43:30;;;;;;;;;;;;;;;;;;5077208;28;19970;-83
2022/07/24 11:45:55;;;;;;;;;;;;;;;;;;5077204;28;19920;-84
2022/07/24 11:48:20;;;;;;;;;;;;;;;;;;5058925;28;19913;-83
2022/07/24 11:50:46;;;;;;;;;;;;;;;;;;5058872;28;19964;-84
2022/07/24 11:53:11;;;;;;;;;;;;;;;;;;5076771;28;19990;-83
2022/07/24 11:55:37;;;;;;;;;;;;;;;;;;5076700;28;19912;-85
2022/07/24 11:58:02;;;;;;;;;;;;;;;;;;5058768;28;19927;-84
2022/07/24 12:00:28;;;;;;;;;;;;;;;;;;5076610;28;19919;-84
2022/07/24 12:02:56;;;;;;;;;;;;;;;;;;5075445;28;19917;-83
2022/07/24 12:05:25;;;;;;;;;;;;;;;;;;5076669;28;19916;-84
2022/07/24 12:07:50;;;;;;;;;;;;;;;;;;5076504;28;20396;-85
2022/07/24 12:10:18;;;;;;;;;;;;;;;;;;5076448;28;19917;-85
2022/07/24 12:12:45;;;;;;;;;;;;;;;;;;5058467;28;19916;-84
2022/07/24 12:15:11;;;;;;;;;;;;;;;;;;5058395;28;19950;-84
2022/07/24 12:17:57;;;;;;;;;;;;;;;;;;5076376;28;19917;-84
2022/07/24 12:20:33;;;;;;;;;;;;;;;;;;5076605;28;19916;-83
2022/07/24 12:22:59;;;;;;;;;;;;;;;;;;5076141;28;20007;-85
2022/07/24 12:25:25;;;;;;;;;;;;;;;;;;5076314;28;20286;-84
2022/07/24 12:28:00;;;;;;;;;;;;;;;;;;5076174;28;20007;-84
2022/07/24 12:30:27;;;;;;;;;;;;;;;;;;5076273;28;20376;-84
2022/07/24 12:32:54;;;;;;;;;;;;;;;;;;5076009;28;19956;-83
2022/07/24 12:35:19;;;;;;;;;;;;;;;;;;5076028;28;19924;-84
2022/07/24 12:37:45;;;;;;;;;;;;;;;;;;5076420;28;19916;-84
2022/07/24 12:40:21;;;;;;;;;;;;;;;;;;5076292;28;20295;-84
2022/07/24 12:42:46;;;;;;;;;;;;;;;;;;5076127;28;19920;-83
2022/07/24 12:45:12;;;;;;;;;;;;;;;;;;5076028;28;19977;-84
2022/07/24 12:47:56;;;;;;;;;;;;;;;;;;5075833;28;20440;-89
2022/07/24 12:50:22;;;;;;;;;;;;;;;;;;5075745;28;19916;-83
2022/07/24 12:52:50;;;;;;;;;;;;;;;;;;5075753;28;20011;-84
2022/07/24 12:55:18;;;;;;;;;;;;;;;;;;5075683;28;20427;-84
2022/07/24 12:57:44;;;;;;;;;;;;;;;;;;5075824;28;19916;-85
2022/07/24 13:00:10;;;;;;;;;;;;;;;;;;5075577;28;19967;-83
2022/07/24 13:02:35;;;;;;;;;;;;;;;;;;5080968;28;19917;-84
2022/07/24 13:05:00;;;;;;;;;;;;;;;;;;5081899;28;19959;-87
2022/07/24 13:07:26;;;;;;;;;;;;;;;;;;5070426;28;19917;-84
2022/07/24 13:09:52;;;;;;;;;;;;;;;;;;5056841;28;19924;-86
2022/07/24 13:12:18;;;;;;;;;;;;;;;;;;5071277;28;20296;-84
2022/07/24 13:14:43;;;;;;;;;;;;;;;;;;5057689;28;19943;-84
2022/07/24 13:17:10;;;;;;;;;;;;;;;;;;5055702;28;19921;-84
2022/07/24 13:19:36;;;;;;;;;;;;;;;;;;5055391;28;19971;-84
2022/07/24 13:22:02;;;;;;;;;;;;;;;;;;5055197;28;19917;-83
2022/07/24 13:24:29;;;;;;;;;;;;;;;;;;5055074;28;19916;-84
2022/07/24 13:26:55;;;;;;;;;;;;;;;;;;5055051;28;19967;-83
2022/07/24 13:29:21;;;;;;;;;;;;;;;;;;5055042;28;19917;-83
2022/07/24 13:31:46;;;;;;;;;;;;;;;;;;5055179;28;20335;-84
2022/07/24 13:34:11;;;;;;;;;;;;;;;;;;5054960;28;19917;-83
2022/07/24 13:36:37;;;;;;;;;;;;;;;;;;5054826;28;19917;-84
2022/07/24 13:39:04;;;;;;;;;;;;;;;;;;5054776;28;20495;-84
2022/07/24 13:41:30;;;;;;;;;;;;;;;;;;5054966;28;19916;-84
2022/07/24 13:43:55;;;;;;;;;;;;;;;;;;5036638;28;20273;-84
2022/07/24 13:46:21;;;;;;;;;;;;;;;;;;5054867;28;19979;-84
2022/07/24 13:48:47;;;;;;;;;;;;;;;;;;5054960;28;20323;-83
2022/07/24 13:51:12;;;;;;;;;;;;;;;;;;5054621;28;20357;-83
2022/07/24 13:53:38;;;;;;;;;;;;;;;;;;5054548;28;19978;-88
2022/07/24 13:56:04;;;;;;;;;;;;;;;;;;5054464;28;19924;-84
2022/07/24 13:58:30;;;;;;;;;;;;;;;;;;5054512;28;19917;-83
2022/07/24 14:00:55;;;;;;;;;;;;;;;;;;5054455;28;19921;-85
2022/07/24 14:03:21;;;;;;;;;;;;;;;;;;5054718;28;19917;-84
2022/07/24 14:05:47;;;;;;;;;;;;;;;;;;5054521;28;19917;-84
2022/07/24 14:08:12;;;;;;;;;;;;;;;;;;5054413;28;20295;-84
2022/07/24 14:10:37;;;;;;;;;;;;;;;;;;5054352;28;20410;-85
2022/07/24 14:13:03;;;;;;;;;;;;;;;;;;5054315;28;19920;-85
2022/07/24 14:15:29;;;;;;;;;;;;;;;;;;5054336;28;20364;-83
2022/07/24 14:17:55;;;;;;;;;;;;;;;;;;5054299;28;19956;-84
2022/07/24 14:20:21;;;;;;;;;;;;;;;;;;5054108;28;19959;-84
2022/07/24 14:22:46;;;;;;;;;;;;;;;;;;5054552;28;19920;-83
2022/07/24 14:25:11;;;;;;;;;;;;;;;;;;5053583;28;19917;-83
2022/07/24 14:27:38;;;;;;;;;;;;;;;;;;5053977;28;19916;-83
2022/07/24 14:30:04;;;;;;;;;;;;;;;;;;5036019;28;19921;-83
2022/07/24 14:32:30;;;;;;;;;;;;;;;;;;5053737;28;19920;-84
2022/07/24 14:34:55;;;;;;;;;;;;;;;;;;5054084;28;20015;-83
2022/07/24 14:37:21;;;;;;;;;;;;;;;;;;5053858;28;19919;-83
2022/07/24 14:39:46;;;;;;;;;;;;;;;;;;5053982;28;20265;-86
2022/07/24 14:42:12;;;;;;;;;;;;;;;;;;5054433;28;19952;-85
2022/07/24 14:44:37;;;;;;;;;;;;;;;;;;5053808;28;20407;-84
2022/07/24 14:47:04;;;;;;;;;;;;;;;;;;5054143;28;19967;-86
2022/07/24 14:49:30;;;;;;;;;;;;;;;;;;5053845;28;19963;-88
2022/07/24 14:51:56;;;;;;;;;;;;;;;;;;5053782;28;19917;-83
2022/07/24 14:54:21;;;;;;;;;;;;;;;;;;5054233;28;19917;-83
2022/07/24 14:56:46;;;;;;;;;;;;;;;;;;5054195;28;19917;-83
2022/07/24 14:59:12;;;;;;;;;;;;;;;;;;5053773;28;19963;-83
2022/07/24 15:01:38;;;;;;;;;;;;;;;;;;5053754;28;19950;-84
2022/07/24 15:04:03;;;;;;;;;;;;;;;;;;5053678;28;19925;-84
2022/07/24 15:06:29;;;;;;;;;;;;;;;;;;5053698;28;20011;-83
2022/07/24 15:08:54;;;;;;;;;;;;;;;;;;5053720;28;19917;-86
2022/07/24 15:11:21;;;;;;;;;;;;;;;;;;5053559;28;20311;-84
2022/07/24 15:13:49;;;;;;;;;;;;;;;;;;5035648;28;19970;-83
2022/07/24 15:16:14;;;;;;;;;;;;;;;;;;5035745;28;20308;-86
2022/07/24 15:18:40;;;;;;;;;;;;;;;;;;5053604;28;19923;-83
2022/07/24 15:21:05;;;;;;;;;;;;;;;;;;5053661;28;19916;-83
2022/07/24 15:23:31;;;;;;;;;;;;;;;;;;5053518;28;19921;-83
2022/07/24 15:25:56;;;;;;;;;;;;;;;;;;5053556;28;19962;-83
2022/07/24 15:28:22;;;;;;;;;;;;;;;;;;5035677;28;20364;-85
2022/07/24 15:30:47;;;;;;;;;;;;;;;;;;5035559;28;20441;-83
2022/07/24 15:33:12;;;;;;;;;;;;;;;;;;5053225;28;20454;-83
2022/07/24 15:35:38;;;;;;;;;;;;;;;;;;5053292;28;19923;-84
2022/07/24 15:38:03;;;;;;;;;;;;;;;;;;5038057;28;19917;-85
2022/07/24 15:40:30;;;;;;;;;;;;;;;;;;5057017;28;19924;-83
2022/07/24 15:42:56;;;;;;;;;;;;;;;;;;5056877;28;19917;-83
2022/07/24 15:45:22;;;;;;;;;;;;;;;;;;5056941;28;19924;-84
2022/07/24 15:47:48;;;;;;;;;;;;;;;;;;5056942;28;19916;-83
2022/07/24 15:50:13;;;;;;;;;;;;;;;;;;5057081;28;19928;-83
2022/07/24 15:52:39;;;;;;;;;;;;;;;;;;5056836;28;19971;-84
2022/07/24 15:55:05;;;;;;;;;;;;;;;;;;5056846;28;20280;-84
2022/07/24 15:57:30;;;;;;;;;;;;;;;;;;5056682;28;20361;-84
2022/07/24 15:59:56;;;;;;;;;;;;;;;;;;5038765;28;19917;-87
2022/07/24 16:02:22;;;;;;;;;;;;;;;;;;5056694;28;19982;-83
2022/07/24 16:04:48;;;;;;;;;;;;;;;;;;5056464;28;20054;-86
2022/07/24 16:07:13;;;;;;;;;;;;;;;;;;5056825;28;19921;-84
2022/07/24 16:09:39;;;;;;;;;;;;;;;;;;5056535;28;20372;-84
2022/07/24 16:12:04;;;;;;;;;;;;;;;;;;5056434;28;19923;-84
2022/07/24 16:14:30;;;;;;;;;;;;;;;;;;5056428;28;20029;-90
2022/07/24 16:16:55;;;;;;;;;;;;;;;;;;5056819;28;19917;-84
2022/07/24 16:19:22;;;;;;;;;;;;;;;;;;5056625;28;19963;-83
2022/07/24 16:21:47;;;;;;;;;;;;;;;;;;5038504;28;19917;-84
2022/07/24 16:24:12;;;;;;;;;;;;;;;;;;5056188;28;19928;-84
2022/07/24 16:26:38;;;;;;;;;;;;;;;;;;5056162;28;20288;-84
2022/07/24 16:29:04;;;;;;;;;;;;;;;;;;5056155;28;20380;-84
2022/07/24 16:31:30;;;;;;;;;;;;;;;;;;5055824;28;20383;-88
2022/07/24 16:33:56;;;;;;;;;;;;;;;;;;5056131;28;19939;-83
2022/07/24 16:36:22;;;;;;;;;;;;;;;;;;5056044;28;19924;-85
2022/07/24 16:38:48;;;;;;;;;;;;;;;;;;5056038;28;19917;-84
2022/07/24 16:41:16;;;;;;;;;;;;;;;;;;5055825;28;19921;-90